sensor_id;sensor_type;location;lat;lon;timestamp;P1;durP1;ratioP1;P2;durP2;ratioP2
52926;SDS011;40783;49.710;8.842;2022-09-16T00:00:59;8.30;;;2.33;;
52926;SDS011;40783;49.710;8.842;2022-09-16T00:03:27;4.68;;;1.83;;
52926;SDS011;40783;49.710;8.842;2022-09-16T00:05:58;3.30;;;1.90;;
52926;SDS011;40783;49.710;8.842;2022-09-16T00:08:26;7.00;;;1.73;;
52926;SDS011;40783;49.710;8.842;2022-09-16T00:10:51;2.92;;;1.75;;
52926;SDS011;40783;49.710;8.842;2022-09-16T00:13:20;2.05;;;1.40;;
52926;SDS011;40783;49.710;8.842;2022-09-16T00:15:48;3.42;;;2.00;;
52926;SDS011;40783;49.710;8.842;2022-09-16T00:18:18;1.58;;;1.25;;
52926;SDS011;40783;49.710;8.842;2022-09-16T00:20:48;5.63;;;1.58;;
52926;SDS011;40783;49.710;8.842;2022-09-16T00:23:15;5.38;;;1.42;;
52926;SDS011;40783;49.710;8.842;2022-09-16T00:25:42;3.88;;;2.00;;
52926;SDS011;40783;49.710;8.842;2022-09-16T00:28:09;3.85;;;2.10;;
52926;SDS011;40783;49.710;8.842;2022-09-16T00:30:35;2.85;;;1.40;;
52926;SDS011;40783;49.710;8.842;2022-09-16T00:33:00;3.65;;;2.10;;
52926;SDS011;40783;49.710;8.842;2022-09-16T00:35:28;4.60;;;2.05;;
52926;SDS011;40783;49.710;8.842;2022-09-16T00:37:54;5.10;;;2.30;;
52926;SDS011;40783;49.710;8.842;2022-09-16T00:40:19;1.67;;;1.30;;
52926;SDS011;40783;49.710;8.842;2022-09-16T00:42:45;2.97;;;1.48;;
52926;SDS011;40783;49.710;8.842;2022-09-16T00:45:14;4.47;;;2.40;;
52926;SDS011;40783;49.710;8.842;2022-09-16T00:50:51;3.03;;;1.35;;
52926;SDS011;40783;49.710;8.842;2022-09-16T00:53:19;4.10;;;2.33;;
52926;SDS011;40783;49.710;8.842;2022-09-16T00:55:50;3.63;;;1.80;;
52926;SDS011;40783;49.710;8.842;2022-09-16T01:00:59;5.93;;;1.75;;
52926;SDS011;40783;49.710;8.842;2022-09-16T01:03:26;3.22;;;1.67;;
52926;SDS011;40783;49.710;8.842;2022-09-16T01:05:58;4.93;;;1.67;;
52926;SDS011;40783;49.710;8.842;2022-09-16T01:08:23;2.85;;;1.67;;
52926;SDS011;40783;49.710;8.842;2022-09-16T01:10:51;4.32;;;1.65;;
52926;SDS011;40783;49.710;8.842;2022-09-16T01:13:16;3.72;;;1.75;;
52926;SDS011;40783;49.710;8.842;2022-09-16T01:21:05;5.15;;;1.80;;
52926;SDS011;40783;49.710;8.842;2022-09-16T01:27:00;6.57;;;2.33;;
52926;SDS011;40783;49.710;8.842;2022-09-16T01:38:18;16.17;;;2.92;;
52926;SDS011;40783;49.710;8.842;2022-09-16T01:41:14;3.35;;;1.92;;
52926;SDS011;40783;49.710;8.842;2022-09-16T01:44:00;5.13;;;1.98;;
52926;SDS011;40783;49.710;8.842;2022-09-16T01:55:04;4.00;;;1.35;;
52926;SDS011;40783;49.710;8.842;2022-09-16T02:00:22;2.85;;;1.58;;
52926;SDS011;40783;49.710;8.842;2022-09-16T02:05:34;8.30;;;2.08;;
52926;SDS011;40783;49.710;8.842;2022-09-16T02:08:17;3.67;;;1.55;;
52926;SDS011;40783;49.710;8.842;2022-09-16T02:10:48;3.05;;;1.38;;
52926;SDS011;40783;49.710;8.842;2022-09-16T02:13:21;5.07;;;2.40;;
52926;SDS011;40783;49.710;8.842;2022-09-16T02:15:51;3.92;;;1.88;;
52926;SDS011;40783;49.710;8.842;2022-09-16T02:18:21;2.70;;;1.73;;
52926;SDS011;40783;49.710;8.842;2022-09-16T02:20:51;2.75;;;1.20;;
52926;SDS011;40783;49.710;8.842;2022-09-16T02:23:24;5.60;;;2.05;;
52926;SDS011;40783;49.710;8.842;2022-09-16T02:25:55;5.35;;;1.45;;
52926;SDS011;40783;49.710;8.842;2022-09-16T02:28:26;2.58;;;1.52;;
52926;SDS011;40783;49.710;8.842;2022-09-16T02:30:56;1.83;;;1.00;;
52926;SDS011;40783;49.710;8.842;2022-09-16T02:33:29;3.72;;;1.70;;
52926;SDS011;40783;49.710;8.842;2022-09-16T02:36:00;2.75;;;1.50;;
52926;SDS011;40783;49.710;8.842;2022-09-16T02:38:49;3.45;;;1.55;;
52926;SDS011;40783;49.710;8.842;2022-09-16T02:41:18;5.50;;;2.10;;
52926;SDS011;40783;49.710;8.842;2022-09-16T02:43:46;4.63;;;2.35;;
52926;SDS011;40783;49.710;8.842;2022-09-16T02:46:18;5.05;;;1.85;;
52926;SDS011;40783;49.710;8.842;2022-09-16T02:54:21;8.38;;;2.13;;
52926;SDS011;40783;49.710;8.842;2022-09-16T02:59:20;4.88;;;1.98;;
52926;SDS011;40783;49.710;8.842;2022-09-16T03:01:46;4.32;;;1.25;;
52926;SDS011;40783;49.710;8.842;2022-09-16T03:04:13;4.43;;;1.47;;
52926;SDS011;40783;49.710;8.842;2022-09-16T03:06:42;2.03;;;1.13;;
52926;SDS011;40783;49.710;8.842;2022-09-16T03:09:10;2.80;;;1.30;;
52926;SDS011;40783;49.710;8.842;2022-09-16T03:26:24;7.40;;;1.38;;
52926;SDS011;40783;49.710;8.842;2022-09-16T03:28:57;9.82;;;1.45;;
52926;SDS011;40783;49.710;8.842;2022-09-16T03:31:54;8.88;;;1.75;;
52926;SDS011;40783;49.710;8.842;2022-09-16T03:37:05;4.47;;;1.65;;
52926;SDS011;40783;49.710;8.842;2022-09-16T03:39:35;5.63;;;1.85;;
52926;SDS011;40783;49.710;8.842;2022-09-16T03:42:02;9.23;;;1.92;;
52926;SDS011;40783;49.710;8.842;2022-09-16T03:44:33;3.88;;;1.40;;
52926;SDS011;40783;49.710;8.842;2022-09-16T03:47:02;6.82;;;1.70;;
52926;SDS011;40783;49.710;8.842;2022-09-16T03:49:30;3.65;;;1.08;;
52926;SDS011;40783;49.710;8.842;2022-09-16T03:51:56;3.55;;;1.02;;
52926;SDS011;40783;49.710;8.842;2022-09-16T03:54:22;4.95;;;1.60;;
52926;SDS011;40783;49.710;8.842;2022-09-16T03:56:48;5.95;;;1.98;;
52926;SDS011;40783;49.710;8.842;2022-09-16T03:59:13;4.33;;;1.83;;
52926;SDS011;40783;49.710;8.842;2022-09-16T04:04:05;5.07;;;1.93;;
52926;SDS011;40783;49.710;8.842;2022-09-16T04:06:30;5.55;;;2.38;;
52926;SDS011;40783;49.710;8.842;2022-09-16T04:08:56;9.03;;;1.27;;
52926;SDS011;40783;49.710;8.842;2022-09-16T04:11:23;3.97;;;1.83;;
52926;SDS011;40783;49.710;8.842;2022-09-16T04:13:48;3.05;;;1.02;;
52926;SDS011;40783;49.710;8.842;2022-09-16T04:16:17;3.03;;;1.33;;
52926;SDS011;40783;49.710;8.842;2022-09-16T04:18:46;3.03;;;1.45;;
52926;SDS011;40783;49.710;8.842;2022-09-16T04:21:12;3.88;;;2.03;;
52926;SDS011;40783;49.710;8.842;2022-09-16T04:23:38;6.20;;;1.98;;
52926;SDS011;40783;49.710;8.842;2022-09-16T04:26:03;1.23;;;1.00;;
52926;SDS011;40783;49.710;8.842;2022-09-16T04:28:30;1.63;;;0.90;;
52926;SDS011;40783;49.710;8.842;2022-09-16T04:31:00;3.67;;;0.95;;
52926;SDS011;40783;49.710;8.842;2022-09-16T04:33:27;3.45;;;0.80;;
52926;SDS011;40783;49.710;8.842;2022-09-16T04:36:00;1.33;;;0.90;;
52926;SDS011;40783;49.710;8.842;2022-09-16T04:38:39;2.47;;;1.30;;
52926;SDS011;40783;49.710;8.842;2022-09-16T04:41:11;7.85;;;1.58;;
52926;SDS011;40783;49.710;8.842;2022-09-16T04:43:38;2.70;;;1.30;;
52926;SDS011;40783;49.710;8.842;2022-09-16T04:46:04;3.05;;;1.55;;
52926;SDS011;40783;49.710;8.842;2022-09-16T04:48:31;5.10;;;1.92;;
52926;SDS011;40783;49.710;8.842;2022-09-16T04:51:04;6.05;;;1.67;;
52926;SDS011;40783;49.710;8.842;2022-09-16T04:53:35;12.32;;;1.67;;
52926;SDS011;40783;49.710;8.842;2022-09-16T04:56:05;3.55;;;1.52;;
52926;SDS011;40783;49.710;8.842;2022-09-16T04:58:39;1.88;;;1.40;;
52926;SDS011;40783;49.710;8.842;2022-09-16T05:01:09;1.20;;;0.70;;
52926;SDS011;40783;49.710;8.842;2022-09-16T05:03:39;3.28;;;1.25;;
52926;SDS011;40783;49.710;8.842;2022-09-16T05:06:05;3.72;;;1.33;;
52926;SDS011;40783;49.710;8.842;2022-09-16T05:08:32;2.95;;;1.25;;
52926;SDS011;40783;49.710;8.842;2022-09-16T05:11:11;2.70;;;1.25;;
52926;SDS011;40783;49.710;8.842;2022-09-16T05:13:39;8.93;;;1.60;;
52926;SDS011;40783;49.710;8.842;2022-09-16T05:16:15;2.28;;;1.27;;
52926;SDS011;40783;49.710;8.842;2022-09-16T05:18:43;4.03;;;1.60;;
52926;SDS011;40783;49.710;8.842;2022-09-16T05:21:13;4.25;;;1.55;;
52926;SDS011;40783;49.710;8.842;2022-09-16T05:23:40;4.00;;;1.92;;
52926;SDS011;40783;49.710;8.842;2022-09-16T05:26:07;2.47;;;1.00;;
52926;SDS011;40783;49.710;8.842;2022-09-16T05:28:34;3.72;;;1.42;;
52926;SDS011;40783;49.710;8.842;2022-09-16T05:31:09;3.08;;;1.23;;
52926;SDS011;40783;49.710;8.842;2022-09-16T05:33:40;2.58;;;1.42;;
52926;SDS011;40783;49.710;8.842;2022-09-16T05:36:08;3.78;;;1.38;;
52926;SDS011;40783;49.710;8.842;2022-09-16T05:38:43;2.78;;;1.63;;
52926;SDS011;40783;49.710;8.842;2022-09-16T05:41:09;2.53;;;1.60;;
52926;SDS011;40783;49.710;8.842;2022-09-16T05:43:36;3.55;;;1.50;;
52926;SDS011;40783;49.710;8.842;2022-09-16T05:46:02;4.18;;;2.17;;
52926;SDS011;40783;49.710;8.842;2022-09-16T05:48:29;3.67;;;1.48;;
52926;SDS011;40783;49.710;8.842;2022-09-16T05:53:25;9.73;;;2.35;;
52926;SDS011;40783;49.710;8.842;2022-09-16T05:56:01;6.55;;;2.33;;
52926;SDS011;40783;49.710;8.842;2022-09-16T05:58:32;6.63;;;1.83;;
52926;SDS011;40783;49.710;8.842;2022-09-16T06:01:03;1.95;;;1.15;;
52926;SDS011;40783;49.710;8.842;2022-09-16T06:03:31;13.15;;;2.33;;
52926;SDS011;40783;49.710;8.842;2022-09-16T06:06:41;2.80;;;1.75;;
52926;SDS011;40783;49.710;8.842;2022-09-16T06:08:48;3.92;;;1.63;;
52926;SDS011;40783;49.710;8.842;2022-09-16T06:11:17;4.18;;;2.22;;
52926;SDS011;40783;49.710;8.842;2022-09-16T06:13:43;5.35;;;2.05;;
52926;SDS011;40783;49.710;8.842;2022-09-16T06:16:12;3.40;;;1.75;;
52926;SDS011;40783;49.710;8.842;2022-09-16T06:18:38;8.82;;;1.95;;
52926;SDS011;40783;49.710;8.842;2022-09-16T06:21:08;6.20;;;2.08;;
52926;SDS011;40783;49.710;8.842;2022-09-16T06:23:37;5.35;;;1.70;;
52926;SDS011;40783;49.710;8.842;2022-09-16T06:26:05;3.83;;;1.75;;
52926;SDS011;40783;49.710;8.842;2022-09-16T06:28:35;3.75;;;2.05;;
52926;SDS011;40783;49.710;8.842;2022-09-16T06:31:06;4.13;;;2.03;;
52926;SDS011;40783;49.710;8.842;2022-09-16T06:33:34;5.57;;;2.28;;
52926;SDS011;40783;49.710;8.842;2022-09-16T06:38:33;6.78;;;1.92;;
52926;SDS011;40783;49.710;8.842;2022-09-16T06:41:00;5.05;;;2.05;;
52926;SDS011;40783;49.710;8.842;2022-09-16T06:43:29;3.13;;;1.58;;
52926;SDS011;40783;49.710;8.842;2022-09-16T06:45:56;2.22;;;1.42;;
52926;SDS011;40783;49.710;8.842;2022-09-16T06:48:26;5.40;;;1.73;;
52926;SDS011;40783;49.710;8.842;2022-09-16T06:50:59;3.85;;;1.80;;
52926;SDS011;40783;49.710;8.842;2022-09-16T06:53:26;8.32;;;2.42;;
52926;SDS011;40783;49.710;8.842;2022-09-16T06:55:54;2.00;;;1.63;;
52926;SDS011;40783;49.710;8.842;2022-09-16T06:58:22;3.55;;;1.75;;
52926;SDS011;40783;49.710;8.842;2022-09-16T07:00:50;6.43;;;2.28;;
52926;SDS011;40783;49.710;8.842;2022-09-16T07:03:15;4.03;;;1.75;;
52926;SDS011;40783;49.710;8.842;2022-09-16T07:05:41;3.03;;;1.90;;
52926;SDS011;40783;49.710;8.842;2022-09-16T07:08:09;2.90;;;1.70;;
52926;SDS011;40783;49.710;8.842;2022-09-16T07:10:34;3.25;;;1.80;;
52926;SDS011;40783;49.710;8.842;2022-09-16T07:12:59;8.07;;;2.47;;
52926;SDS011;40783;49.710;8.842;2022-09-16T07:15:29;7.03;;;2.42;;
52926;SDS011;40783;49.710;8.842;2022-09-16T07:17:58;3.60;;;2.13;;
52926;SDS011;40783;49.710;8.842;2022-09-16T07:20:26;5.07;;;1.83;;
52926;SDS011;40783;49.710;8.842;2022-09-16T07:22:52;3.58;;;1.63;;
52926;SDS011;40783;49.710;8.842;2022-09-16T07:25:18;4.90;;;2.20;;
52926;SDS011;40783;49.710;8.842;2022-09-16T07:27:44;3.65;;;2.00;;
52926;SDS011;40783;49.710;8.842;2022-09-16T07:30:09;8.33;;;2.00;;
52926;SDS011;40783;49.710;8.842;2022-09-16T07:32:35;7.28;;;2.25;;
52926;SDS011;40783;49.710;8.842;2022-09-16T07:35:02;5.47;;;2.20;;
52926;SDS011;40783;49.710;8.842;2022-09-16T07:37:30;3.45;;;1.92;;
52926;SDS011;40783;49.710;8.842;2022-09-16T07:39:56;7.13;;;2.40;;
52926;SDS011;40783;49.710;8.842;2022-09-16T07:42:22;7.97;;;3.00;;
52926;SDS011;40783;49.710;8.842;2022-09-16T07:44:47;4.53;;;1.40;;
52926;SDS011;40783;49.710;8.842;2022-09-16T07:47:15;2.97;;;1.43;;
52926;SDS011;40783;49.710;8.842;2022-09-16T07:49:40;5.25;;;1.92;;
52926;SDS011;40783;49.710;8.842;2022-09-16T07:52:06;3.53;;;1.75;;
52926;SDS011;40783;49.710;8.842;2022-09-16T07:54:31;3.83;;;1.83;;
52926;SDS011;40783;49.710;8.842;2022-09-16T07:56:57;5.27;;;2.40;;
52926;SDS011;40783;49.710;8.842;2022-09-16T07:59:25;9.17;;;2.40;;
52926;SDS011;40783;49.710;8.842;2022-09-16T08:01:50;6.03;;;2.03;;
52926;SDS011;40783;49.710;8.842;2022-09-16T08:04:18;3.38;;;1.70;;
52926;SDS011;40783;49.710;8.842;2022-09-16T08:06:44;10.80;;;1.55;;
52926;SDS011;40783;49.710;8.842;2022-09-16T08:09:10;3.33;;;1.58;;
52926;SDS011;40783;49.710;8.842;2022-09-16T08:11:35;3.33;;;1.70;;
52926;SDS011;40783;49.710;8.842;2022-09-16T08:14:01;11.93;;;2.20;;
52926;SDS011;40783;49.710;8.842;2022-09-16T08:16:28;3.25;;;1.80;;
52926;SDS011;40783;49.710;8.842;2022-09-16T08:18:55;6.13;;;1.60;;
52926;SDS011;40783;49.710;8.842;2022-09-16T08:21:23;4.60;;;2.13;;
52926;SDS011;40783;49.710;8.842;2022-09-16T08:23:50;3.60;;;1.40;;
52926;SDS011;40783;49.710;8.842;2022-09-16T08:26:18;5.63;;;1.80;;
52926;SDS011;40783;49.710;8.842;2022-09-16T08:28:44;7.18;;;2.15;;
52926;SDS011;40783;49.710;8.842;2022-09-16T08:31:11;5.00;;;1.90;;
52926;SDS011;40783;49.710;8.842;2022-09-16T08:33:39;2.72;;;1.35;;
52926;SDS011;40783;49.710;8.842;2022-09-16T08:36:10;5.78;;;1.75;;
52926;SDS011;40783;49.710;8.842;2022-09-16T08:38:39;7.00;;;1.88;;
52926;SDS011;40783;49.710;8.842;2022-09-16T08:52:28;4.03;;;1.38;;
52926;SDS011;40783;49.710;8.842;2022-09-16T08:58:02;3.50;;;0.83;;
52926;SDS011;40783;49.710;8.842;2022-09-16T09:00:31;3.70;;;1.52;;
52926;SDS011;40783;49.710;8.842;2022-09-16T09:03:04;5.95;;;1.52;;
52926;SDS011;40783;49.710;8.842;2022-09-16T09:05:53;8.35;;;2.20;;
52926;SDS011;40783;49.710;8.842;2022-09-16T09:22:04;5.93;;;1.27;;
52926;SDS011;40783;49.710;8.842;2022-09-16T09:27:27;3.22;;;1.15;;
52926;SDS011;40783;49.710;8.842;2022-09-16T09:30:07;3.30;;;1.60;;
52926;SDS011;40783;49.710;8.842;2022-09-16T09:41:04;2.78;;;0.98;;
52926;SDS011;40783;49.710;8.842;2022-09-16T09:43:40;7.47;;;1.30;;
52926;SDS011;40783;49.710;8.842;2022-09-16T09:46:19;1.88;;;1.00;;
52926;SDS011;40783;49.710;8.842;2022-09-16T09:48:57;3.30;;;1.85;;
52926;SDS011;40783;49.710;8.842;2022-09-16T09:51:33;5.70;;;1.08;;
52926;SDS011;40783;49.710;8.842;2022-09-16T09:54:13;3.08;;;1.52;;
52926;SDS011;40783;49.710;8.842;2022-09-16T09:57:00;3.92;;;1.23;;
52926;SDS011;40783;49.710;8.842;2022-09-16T09:59:46;4.15;;;1.23;;
52926;SDS011;40783;49.710;8.842;2022-09-16T10:02:19;5.30;;;1.52;;
52926;SDS011;40783;49.710;8.842;2022-09-16T10:04:46;2.85;;;1.30;;
52926;SDS011;40783;49.710;8.842;2022-09-16T10:09:46;4.88;;;1.83;;
52926;SDS011;40783;49.710;8.842;2022-09-16T10:12:24;2.20;;;1.05;;
52926;SDS011;40783;49.710;8.842;2022-09-16T10:15:00;6.18;;;1.73;;
52926;SDS011;40783;49.710;8.842;2022-09-16T10:17:27;5.43;;;1.63;;
52926;SDS011;40783;49.710;8.842;2022-09-16T10:19:58;2.00;;;0.80;;
52926;SDS011;40783;49.710;8.842;2022-09-16T10:22:29;3.65;;;1.27;;
52926;SDS011;40783;49.710;8.842;2022-09-16T10:24:57;1.50;;;1.00;;
52926;SDS011;40783;49.710;8.842;2022-09-16T10:27:27;3.95;;;1.10;;
52926;SDS011;40783;49.710;8.842;2022-09-16T10:35:25;3.42;;;1.65;;
52926;SDS011;40783;49.710;8.842;2022-09-16T10:38:03;3.42;;;1.63;;
52926;SDS011;40783;49.710;8.842;2022-09-16T10:40:52;10.52;;;1.52;;
52926;SDS011;40783;49.710;8.842;2022-09-16T10:43:25;3.70;;;1.30;;
52926;SDS011;40783;49.710;8.842;2022-09-16T10:45:53;5.93;;;2.03;;
52926;SDS011;40783;49.710;8.842;2022-09-16T10:48:20;2.47;;;1.38;;
52926;SDS011;40783;49.710;8.842;2022-09-16T10:50:51;2.90;;;1.58;;
52926;SDS011;40783;49.710;8.842;2022-09-16T10:53:44;15.15;;;2.15;;
52926;SDS011;40783;49.710;8.842;2022-09-16T10:56:16;1.98;;;1.08;;
52926;SDS011;40783;49.710;8.842;2022-09-16T10:58:43;1.75;;;1.10;;
52926;SDS011;40783;49.710;8.842;2022-09-16T11:09:36;2.20;;;1.17;;
52926;SDS011;40783;49.710;8.842;2022-09-16T11:23:19;5.28;;;2.10;;
52926;SDS011;40783;49.710;8.842;2022-09-16T11:28:36;6.13;;;1.15;;
52926;SDS011;40783;49.710;8.842;2022-09-16T11:36:54;4.18;;;1.42;;
52926;SDS011;40783;49.710;8.842;2022-09-16T12:00:55;1.33;;;0.73;;
52926;SDS011;40783;49.710;8.842;2022-09-16T12:03:45;4.35;;;1.20;;
52926;SDS011;40783;49.710;8.842;2022-09-16T12:06:22;3.17;;;1.17;;
52926;SDS011;40783;49.710;8.842;2022-09-16T12:09:08;3.00;;;1.17;;
52926;SDS011;40783;49.710;8.842;2022-09-16T12:11:38;2.47;;;1.05;;
52926;SDS011;40783;49.710;8.842;2022-09-16T12:16:41;8.02;;;1.77;;
52926;SDS011;40783;49.710;8.842;2022-09-16T12:19:22;2.63;;;1.00;;
52926;SDS011;40783;49.710;8.842;2022-09-16T12:21:53;1.58;;;1.02;;
52926;SDS011;40783;49.710;8.842;2022-09-16T12:24:25;2.05;;;1.02;;
52926;SDS011;40783;49.710;8.842;2022-09-16T12:27:08;3.35;;;1.15;;
52926;SDS011;40783;49.710;8.842;2022-09-16T12:29:43;5.68;;;1.50;;
52926;SDS011;40783;49.710;8.842;2022-09-16T12:32:13;5.68;;;1.55;;
52926;SDS011;40783;49.710;8.842;2022-09-16T12:34:45;2.78;;;1.67;;
52926;SDS011;40783;49.710;8.842;2022-09-16T12:40:03;3.17;;;1.63;;
52926;SDS011;40783;49.710;8.842;2022-09-16T12:43:03;6.68;;;1.60;;
52926;SDS011;40783;49.710;8.842;2022-09-16T12:45:37;6.60;;;1.58;;
52926;SDS011;40783;49.710;8.842;2022-09-16T12:48:20;3.45;;;1.10;;
52926;SDS011;40783;49.710;8.842;2022-09-16T12:54:14;4.25;;;1.17;;
52926;SDS011;40783;49.710;8.842;2022-09-16T13:03:08;0.77;;;0.77;;
52926;SDS011;40783;49.710;8.842;2022-09-16T13:07:59;1.52;;;0.85;;
52926;SDS011;40783;49.710;8.842;2022-09-16T13:10:39;2.53;;;1.33;;
52926;SDS011;40783;49.710;8.842;2022-09-16T13:13:23;1.00;;;0.65;;
52926;SDS011;40783;49.710;8.842;2022-09-16T13:16:02;5.18;;;1.08;;
52926;SDS011;40783;49.710;8.842;2022-09-16T13:21:21;2.65;;;1.00;;
52926;SDS011;40783;49.710;8.842;2022-09-16T13:26:41;0.65;;;0.65;;
52926;SDS011;40783;49.710;8.842;2022-09-16T13:31:49;1.75;;;0.85;;
52926;SDS011;40783;49.710;8.842;2022-09-16T13:34:15;1.58;;;1.00;;
52926;SDS011;40783;49.710;8.842;2022-09-16T13:36:41;7.18;;;1.48;;
52926;SDS011;40783;49.710;8.842;2022-09-16T13:39:11;5.25;;;1.15;;
52926;SDS011;40783;49.710;8.842;2022-09-16T13:41:53;3.22;;;0.80;;
52926;SDS011;40783;49.710;8.842;2022-09-16T13:44:29;2.63;;;1.25;;
52926;SDS011;40783;49.710;8.842;2022-09-16T13:52:09;0.55;;;0.45;;
52926;SDS011;40783;49.710;8.842;2022-09-16T13:54:49;1.13;;;0.60;;
52926;SDS011;40783;49.710;8.842;2022-09-16T14:13:20;0.68;;;0.60;;
52926;SDS011;40783;49.710;8.842;2022-09-16T14:15:50;1.02;;;0.90;;
52926;SDS011;40783;49.710;8.842;2022-09-16T14:18:19;1.13;;;0.80;;
52926;SDS011;40783;49.710;8.842;2022-09-16T14:23:32;1.27;;;0.52;;
52926;SDS011;40783;49.710;8.842;2022-09-16T14:26:10;1.25;;;0.40;;
52926;SDS011;40783;49.710;8.842;2022-09-16T14:28:39;4.53;;;0.95;;
52926;SDS011;40783;49.710;8.842;2022-09-16T14:31:17;1.63;;;0.63;;
52926;SDS011;40783;49.710;8.842;2022-09-16T14:34:04;1.25;;;0.47;;
52926;SDS011;40783;49.710;8.842;2022-09-16T14:36:33;2.03;;;0.45;;
52926;SDS011;40783;49.710;8.842;2022-09-16T14:41:36;1.42;;;0.98;;
52926;SDS011;40783;49.710;8.842;2022-09-16T14:46:57;0.60;;;0.57;;
52926;SDS011;40783;49.710;8.842;2022-09-16T14:49:26;1.80;;;0.95;;
52926;SDS011;40783;49.710;8.842;2022-09-16T14:51:59;1.75;;;0.75;;
52926;SDS011;40783;49.710;8.842;2022-09-16T14:54:29;0.68;;;0.40;;
52926;SDS011;40783;49.710;8.842;2022-09-16T14:59:33;1.33;;;0.60;;
52926;SDS011;40783;49.710;8.842;2022-09-16T15:02:05;1.35;;;0.85;;
52926;SDS011;40783;49.710;8.842;2022-09-16T15:04:32;1.52;;;0.90;;
52926;SDS011;40783;49.710;8.842;2022-09-16T15:07:04;1.77;;;0.73;;
52926;SDS011;40783;49.710;8.842;2022-09-16T15:12:13;2.42;;;0.80;;
52926;SDS011;40783;49.710;8.842;2022-09-16T15:14:43;0.90;;;0.47;;
52926;SDS011;40783;49.710;8.842;2022-09-16T15:17:13;1.08;;;0.50;;
52926;SDS011;40783;49.710;8.842;2022-09-16T15:19:45;0.88;;;0.63;;
52926;SDS011;40783;49.710;8.842;2022-09-16T15:22:15;1.02;;;0.55;;
52926;SDS011;40783;49.710;8.842;2022-09-16T15:27:10;3.28;;;0.77;;
52926;SDS011;40783;49.710;8.842;2022-09-16T15:29:47;1.55;;;0.90;;
52926;SDS011;40783;49.710;8.842;2022-09-16T15:32:18;1.35;;;0.75;;
52926;SDS011;40783;49.710;8.842;2022-09-16T15:34:59;1.77;;;0.90;;
52926;SDS011;40783;49.710;8.842;2022-09-16T15:37:35;1.27;;;0.50;;
52926;SDS011;40783;49.710;8.842;2022-09-16T15:40:07;0.50;;;0.50;;
52926;SDS011;40783;49.710;8.842;2022-09-16T15:42:33;0.95;;;0.57;;
52926;SDS011;40783;49.710;8.842;2022-09-16T15:45:01;6.65;;;0.88;;
52926;SDS011;40783;49.710;8.842;2022-09-16T15:47:37;1.25;;;0.70;;
52926;SDS011;40783;49.710;8.842;2022-09-16T15:50:15;2.25;;;0.65;;
52926;SDS011;40783;49.710;8.842;2022-09-16T15:55:31;1.10;;;0.63;;
52926;SDS011;40783;49.710;8.842;2022-09-16T15:58:02;1.52;;;0.60;;
52926;SDS011;40783;49.710;8.842;2022-09-16T16:03:21;1.35;;;0.52;;
52926;SDS011;40783;49.710;8.842;2022-09-16T16:05:50;0.45;;;0.45;;
52926;SDS011;40783;49.710;8.842;2022-09-16T16:11:08;1.05;;;0.60;;
52926;SDS011;40783;49.710;8.842;2022-09-16T16:13:38;3.50;;;0.47;;
52926;SDS011;40783;49.710;8.842;2022-09-16T16:16:04;0.82;;;0.40;;
52926;SDS011;40783;49.710;8.842;2022-09-16T16:18:32;0.63;;;0.55;;
52926;SDS011;40783;49.710;8.842;2022-09-16T16:21:10;0.77;;;0.75;;
52926;SDS011;40783;49.710;8.842;2022-09-16T16:23:39;1.33;;;0.60;;
52926;SDS011;40783;49.710;8.842;2022-09-16T16:26:06;0.65;;;0.52;;
52926;SDS011;40783;49.710;8.842;2022-09-16T16:28:38;1.13;;;0.57;;
52926;SDS011;40783;49.710;8.842;2022-09-16T16:31:36;0.52;;;0.52;;
52926;SDS011;40783;49.710;8.842;2022-09-16T16:33:56;1.38;;;0.40;;
52926;SDS011;40783;49.710;8.842;2022-09-16T16:36:24;0.55;;;0.52;;
52926;SDS011;40783;49.710;8.842;2022-09-16T16:38:50;1.08;;;0.52;;
52926;SDS011;40783;49.710;8.842;2022-09-16T16:41:19;1.17;;;0.77;;
52926;SDS011;40783;49.710;8.842;2022-09-16T16:43:48;2.17;;;0.95;;
52926;SDS011;40783;49.710;8.842;2022-09-16T16:46:15;0.40;;;0.40;;
52926;SDS011;40783;49.710;8.842;2022-09-16T16:48:44;1.13;;;0.50;;
52926;SDS011;40783;49.710;8.842;2022-09-16T16:51:11;2.47;;;0.57;;
52926;SDS011;40783;49.710;8.842;2022-09-16T16:53:39;4.68;;;1.38;;
52926;SDS011;40783;49.710;8.842;2022-09-16T16:56:08;0.40;;;0.40;;
52926;SDS011;40783;49.710;8.842;2022-09-16T16:58:35;2.42;;;0.90;;
52926;SDS011;40783;49.710;8.842;2022-09-16T17:01:08;0.85;;;0.70;;
52926;SDS011;40783;49.710;8.842;2022-09-16T17:03:34;1.02;;;0.52;;
52926;SDS011;40783;49.710;8.842;2022-09-16T17:06:04;4.28;;;0.95;;
52926;SDS011;40783;49.710;8.842;2022-09-16T17:08:35;0.65;;;0.30;;
52926;SDS011;40783;49.710;8.842;2022-09-16T17:11:10;1.20;;;0.63;;
52926;SDS011;40783;49.710;8.842;2022-09-16T17:13:45;1.88;;;0.55;;
52926;SDS011;40783;49.710;8.842;2022-09-16T17:16:17;0.50;;;0.50;;
52926;SDS011;40783;49.710;8.842;2022-09-16T17:18:47;1.40;;;0.57;;
52926;SDS011;40783;49.710;8.842;2022-09-16T17:21:46;0.70;;;0.60;;
52926;SDS011;40783;49.710;8.842;2022-09-16T17:24:05;0.43;;;0.40;;
52926;SDS011;40783;49.710;8.842;2022-09-16T17:26:33;0.22;;;0.22;;
52926;SDS011;40783;49.710;8.842;2022-09-16T17:29:01;0.30;;;0.30;;
52926;SDS011;40783;49.710;8.842;2022-09-16T17:31:28;0.30;;;0.30;;
52926;SDS011;40783;49.710;8.842;2022-09-16T17:33:55;0.90;;;0.60;;
52926;SDS011;40783;49.710;8.842;2022-09-16T17:36:31;0.88;;;0.32;;
52926;SDS011;40783;49.710;8.842;2022-09-16T17:38:59;1.60;;;0.68;;
52926;SDS011;40783;49.710;8.842;2022-09-16T17:41:27;0.68;;;0.68;;
52926;SDS011;40783;49.710;8.842;2022-09-16T17:43:53;1.13;;;0.73;;
52926;SDS011;40783;49.710;8.842;2022-09-16T17:46:22;1.35;;;0.70;;
52926;SDS011;40783;49.710;8.842;2022-09-16T17:49:13;2.97;;;0.90;;
52926;SDS011;40783;49.710;8.842;2022-09-16T17:51:40;2.25;;;1.10;;
52926;SDS011;40783;49.710;8.842;2022-09-16T17:54:08;1.70;;;1.15;;
52926;SDS011;40783;49.710;8.842;2022-09-16T17:56:36;2.15;;;1.17;;
52926;SDS011;40783;49.710;8.842;2022-09-16T17:59:02;2.50;;;0.90;;
52926;SDS011;40783;49.710;8.842;2022-09-16T18:01:27;2.45;;;1.33;;
52926;SDS011;40783;49.710;8.842;2022-09-16T18:03:54;3.90;;;1.60;;
52926;SDS011;40783;49.710;8.842;2022-09-16T18:06:41;2.55;;;1.17;;
52926;SDS011;40783;49.710;8.842;2022-09-16T18:09:08;1.98;;;1.23;;
52926;SDS011;40783;49.710;8.842;2022-09-16T18:11:34;2.13;;;0.60;;
52926;SDS011;40783;49.710;8.842;2022-09-16T18:14:06;1.88;;;1.23;;
52926;SDS011;40783;49.710;8.842;2022-09-16T18:16:34;1.45;;;0.90;;
52926;SDS011;40783;49.710;8.842;2022-09-16T18:19:00;1.45;;;0.80;;
52926;SDS011;40783;49.710;8.842;2022-09-16T18:21:26;2.95;;;1.02;;
52926;SDS011;40783;49.710;8.842;2022-09-16T18:23:53;2.72;;;1.58;;
52926;SDS011;40783;49.710;8.842;2022-09-16T18:26:20;3.75;;;1.50;;
52926;SDS011;40783;49.710;8.842;2022-09-16T18:28:46;2.67;;;1.17;;
52926;SDS011;40783;49.710;8.842;2022-09-16T18:31:14;2.10;;;1.48;;
52926;SDS011;40783;49.710;8.842;2022-09-16T18:33:41;2.30;;;1.00;;
52926;SDS011;40783;49.710;8.842;2022-09-16T18:36:08;3.60;;;0.68;;
52926;SDS011;40783;49.710;8.842;2022-09-16T18:38:36;1.27;;;0.95;;
52926;SDS011;40783;49.710;8.842;2022-09-16T18:41:08;2.95;;;1.02;;
52926;SDS011;40783;49.710;8.842;2022-09-16T18:43:36;1.50;;;0.90;;
52926;SDS011;40783;49.710;8.842;2022-09-16T18:46:13;1.83;;;0.98;;
52926;SDS011;40783;49.710;8.842;2022-09-16T18:48:40;1.58;;;1.30;;
52926;SDS011;40783;49.710;8.842;2022-09-16T18:51:22;2.42;;;1.40;;
52926;SDS011;40783;49.710;8.842;2022-09-16T18:53:56;1.42;;;1.15;;
52926;SDS011;40783;49.710;8.842;2022-09-16T18:56:25;5.45;;;2.00;;
52926;SDS011;40783;49.710;8.842;2022-09-16T18:58:52;3.08;;;1.45;;
52926;SDS011;40783;49.710;8.842;2022-09-16T19:03:46;3.47;;;1.88;;
52926;SDS011;40783;49.710;8.842;2022-09-16T19:06:14;1.73;;;1.02;;
52926;SDS011;40783;49.710;8.842;2022-09-16T19:08:40;1.70;;;1.23;;